Time;durP1;ratioP1;P1;durP2;ratioP2;P2;SDS_P1;SDS_P2;PMS_P1;PMS_P2;Temp;Humidity;BMP_temperature;BMP_pressure;BME280_temperature;BME280_humidity;BME280_pressure;Samples;Min_cycle;Max_cycle;Signal;HPM_P1;HPM_P2
2021/10/01 00:02:26;;;;;;;193.48;179.15;;;11.00;99.90;;;;;;5018188;28;20209;-78
2021/10/01 00:04:52;;;;;;;214.20;198.55;;;11.10;99.90;;;;;;5035945;28;20169;-78
2021/10/01 00:07:18;;;;;;;192.20;177.80;;;11.10;99.90;;;;;;5017902;28;20220;-78
2021/10/01 00:09:43;;;;;;;182.27;168.13;;;11.20;99.90;;;;;;5018174;28;20579;-78
2021/10/01 00:12:12;;;;;;;178.67;164.67;;;11.10;99.90;;;;;;5035839;28;20307;-78
2021/10/01 00:14:39;;;;;;;189.55;175.20;;;11.10;99.90;;;;;;5036007;28;20180;-78
2021/10/01 00:17:06;;;;;;;222.00;206.30;;;11.10;99.90;;;;;;5035595;28;20231;-78
2021/10/01 00:19:34;;;;;;;149.25;136.35;;;11.10;99.90;;;;;;5035678;28;20407;-78
2021/10/01 00:22:02;;;;;;;185.52;170.60;;;11.10;99.90;;;;;;5036241;28;20525;-78
2021/10/01 00:24:29;;;;;;;178.13;163.70;;;11.20;99.90;;;;;;5017782;28;20174;-78
2021/10/01 00:26:55;;;;;;;190.00;175.15;;;11.10;99.90;;;;;;5035064;28;20240;-78
2021/10/01 00:29:21;;;;;;;108.87;95.23;;;11.10;99.90;;;;;;5034531;28;20165;-78
2021/10/01 00:31:47;;;;;;;109.07;95.03;;;11.20;99.90;;;;;;5017359;28;20173;-78
2021/10/01 00:34:15;;;;;;;106.37;94.83;;;11.10;99.90;;;;;;5017537;28;20636;-79
2021/10/01 00:36:41;;;;;;;127.43;115.25;;;11.00;99.90;;;;;;5035330;28;20196;-78
2021/10/01 00:39:07;;;;;;;139.20;125.97;;;11.00;99.90;;;;;;5017629;28;20205;-78
2021/10/01 00:41:34;;;;;;;181.18;166.60;;;11.00;99.90;;;;;;5035432;28;20763;-78
2021/10/01 00:44:00;;;;;;;163.52;149.30;;;11.00;99.90;;;;;;5035158;28;20169;-78
2021/10/01 00:46:26;;;;;;;168.98;154.82;;;11.00;99.90;;;;;;5035010;28;20176;-78
2021/10/01 00:48:52;;;;;;;165.25;151.23;;;11.00;99.90;;;;;;5035119;28;20161;-78
2021/10/01 00:51:19;;;;;;;215.27;199.52;;;10.90;99.90;;;;;;5034565;28;20169;-78
2021/10/01 00:53:45;;;;;;;192.73;177.95;;;10.80;99.90;;;;;;5035158;28;20244;-78
2021/10/01 00:56:11;;;;;;;148.20;134.65;;;10.80;99.90;;;;;;5035222;28;20189;-78
2021/10/01 00:58:37;;;;;;;187.23;173.05;;;10.90;99.90;;;;;;5121481;22;20254;-83
2021/10/01 01:01:11;;;;;;;212.00;196.57;;;10.80;99.90;;;;;;5055760;28;20222;-83
2021/10/01 01:04:00;;;;;;;149.45;136.55;;;10.80;99.90;;;;;;5054584;28;20188;-83
2021/10/01 01:06:50;;;;;;;132.93;119.88;;;10.90;99.90;;;;;;5036826;28;20159;-83
2021/10/01 01:09:28;;;;;;;133.63;120.78;;;10.80;99.90;;;;;;5054833;28;20240;-83
2021/10/01 01:12:03;;;;;;;162.57;148.68;;;10.80;99.90;;;;;;5054948;28;20180;-83
2021/10/01 01:14:52;;;;;;;169.30;155.23;;;10.70;99.90;;;;;;5054767;28;20152;-83
2021/10/01 01:17:48;;;;;;;161.13;147.15;;;10.70;99.90;;;;;;5017781;28;20208;-83
2021/10/01 01:20:21;;;;;;;163.10;149.07;;;10.70;99.90;;;;;;5054954;28;20206;-82
2021/10/01 01:23:08;;;;;;;144.15;131.32;;;10.70;99.90;;;;;;5036885;28;20333;-83
2021/10/01 01:25:53;;;;;;;167.45;153.65;;;10.70;99.90;;;;;;5054483;28;20160;-82
2021/10/01 01:28:40;;;;;;;194.52;179.75;;;10.70;99.90;;;;;;5054735;28;20671;-83
2021/10/01 01:31:22;;;;;;;141.35;128.77;;;10.60;99.90;;;;;;5054888;28;20516;-82
2021/10/01 01:33:50;;;;;;;187.18;172.77;;;10.50;99.90;;;;;;5036840;28;20642;-82
2021/10/01 01:36:17;;;;;;;174.70;161.05;;;10.50;99.90;;;;;;5054774;28;20214;-82
2021/10/01 01:38:49;;;;;;;172.07;158.70;;;10.50;99.90;;;;;;5054858;28;20279;-83
2021/10/01 01:41:16;;;;;;;154.77;141.65;;;10.50;99.90;;;;;;5058625;28;20190;-82
2021/10/01 01:43:43;;;;;;;181.02;167.50;;;10.50;99.90;;;;;;5058656;28;20195;-83
2021/10/01 01:46:09;;;;;;;143.88;131.15;;;10.50;99.90;;;;;;5040987;28;20225;-83
2021/10/01 01:48:36;;;;;;;177.27;163.43;;;10.50;99.90;;;;;;5058989;28;20744;-83
2021/10/01 01:51:03;;;;;;;145.25;131.88;;;10.60;99.90;;;;;;5059573;28;20164;-83
2021/10/01 01:53:30;;;;;;;164.27;150.50;;;10.60;99.90;;;;;;5041184;28;20179;-83
2021/10/01 01:55:56;;;;;;;202.63;187.60;;;10.50;99.90;;;;;;5059499;28;20156;-82
2021/10/01 01:58:23;;;;;;;150.13;137.00;;;10.50;99.90;;;;;;5059336;28;20200;-81
2021/10/01 02:00:49;;;;;;;181.52;167.13;;;10.40;99.90;;;;;;5058770;28;20171;-80
2021/10/01 02:03:16;;;;;;;158.68;145.02;;;10.50;99.90;;;;;;5059157;28;20228;-80
2021/10/01 02:05:45;;;;;;;146.32;133.35;;;10.50;99.90;;;;;;5059324;28;20161;-80
2021/10/01 02:08:15;;;;;;;179.38;164.77;;;10.50;99.90;;;;;;5058639;28;20214;-81
2021/10/01 02:10:41;;;;;;;118.47;106.70;;;10.50;99.90;;;;;;5058566;28;20171;-80
2021/10/01 02:13:11;;;;;;;107.32;92.50;;;10.50;99.90;;;;;;5058794;28;20164;-80
2021/10/01 02:15:39;;;;;;;153.57;140.02;;;10.50;99.90;;;;;;5040482;28;20570;-80
2021/10/01 02:18:08;;;;;;;120.82;108.93;;;10.50;99.90;;;;;;5058046;28;20184;-80
2021/10/01 02:20:35;;;;;;;138.10;125.05;;;10.50;99.90;;;;;;5058179;28;20576;-80
2021/10/01 02:23:02;;;;;;;133.88;121.47;;;10.50;99.90;;;;;;5040281;28;20195;-80
2021/10/01 02:28:38;;;;;;;164.57;150.88;;;10.50;99.90;;;;;;5058335;28;20207;-80
2021/10/01 02:31:13;;;;;;;156.77;143.90;;;10.40;99.90;;;;;;5040270;28;20636;-80
2021/10/01 02:33:44;;;;;;;153.70;140.82;;;10.40;99.90;;;;;;5057651;28;20164;-80
2021/10/01 02:36:11;;;;;;;131.18;119.30;;;10.40;99.90;;;;;;5057740;28;20650;-80
2021/10/01 02:38:37;;;;;;;141.77;129.48;;;10.40;99.90;;;;;;5058133;28;20181;-80
2021/10/01 02:41:03;;;;;;;140.13;127.93;;;10.40;99.90;;;;;;5058084;28;20169;-80
2021/10/01 02:43:29;;;;;;;138.70;126.05;;;10.40;99.90;;;;;;5040348;28;20606;-80
2021/10/01 02:45:55;;;;;;;148.60;136.07;;;10.40;99.90;;;;;;5058034;28;20157;-80
2021/10/01 02:48:23;;;;;;;112.27;100.77;;;10.40;99.90;;;;;;5058096;28;20267;-80
2021/10/01 02:50:57;;;;;;;124.18;112.63;;;10.40;99.90;;;;;;5056616;28;20184;-80
2021/10/01 02:53:29;;;;;;;127.03;115.03;;;10.50;99.90;;;;;;5058205;28;20157;-80
2021/10/01 02:56:12;;;;;;;146.85;134.30;;;10.40;99.90;;;;;;5058167;28;20604;-80
2021/10/01 02:58:40;;;;;;;129.52;117.22;;;10.30;99.90;;;;;;5039119;28;20336;-80
2021/10/01 03:01:10;;;;;;;123.05;111.18;;;10.30;99.90;;;;;;5039591;28;20654;-80
2021/10/01 03:03:47;;;;;;;124.15;112.38;;;10.30;99.90;;;;;;5057333;28;20254;-80
2021/10/01 03:06:17;;;;;;;104.63;93.70;;;10.30;99.90;;;;;;5057180;28;20225;-80
2021/10/01 03:08:44;;;;;;;145.48;132.38;;;10.30;99.90;;;;;;5057444;28;20186;-80
2021/10/01 03:11:10;;;;;;;127.55;115.45;;;10.20;99.90;;;;;;5039596;28;20168;-80
2021/10/01 03:13:43;;;;;;;128.93;116.95;;;10.30;99.90;;;;;;5057858;28;20163;-80
2021/10/01 03:16:10;;;;;;;132.10;119.65;;;10.20;99.90;;;;;;5057714;28;20211;-80
2021/10/01 03:18:37;;;;;;;157.23;144.13;;;10.30;99.90;;;;;;5057474;28;20203;-80
2021/10/01 03:21:05;;;;;;;187.25;172.93;;;10.20;99.90;;;;;;5057315;28;20204;-80
2021/10/01 03:23:31;;;;;;;189.93;174.70;;;10.10;99.90;;;;;;5057682;28;20241;-80
2021/10/01 03:25:57;;;;;;;150.63;137.48;;;10.10;99.90;;;;;;5058275;28;20163;-80
2021/10/01 03:28:23;;;;;;;168.75;154.35;;;10.10;99.90;;;;;;5058027;28;20692;-80
2021/10/01 03:30:49;;;;;;;140.30;127.80;;;10.10;99.90;;;;;;5040166;28;20164;-80
2021/10/01 03:33:16;;;;;;;172.07;157.68;;;10.20;99.90;;;;;;5058603;28;20423;-81
2021/10/01 03:35:43;;;;;;;155.00;141.70;;;10.20;99.90;;;;;;5039937;28;20214;-80
2021/10/01 03:38:13;;;;;;;189.80;174.07;;;10.10;99.90;;;;;;5040048;28;20204;-80
2021/10/01 03:40:43;;;;;;;132.98;121.03;;;10.10;99.90;;;;;;5039799;28;20168;-81
2021/10/01 03:43:16;;;;;;;135.40;122.38;;;10.20;99.90;;;;;;5039573;28;20188;-80
2021/10/01 03:45:45;;;;;;;133.98;121.75;;;10.20;99.90;;;;;;5039994;28;20164;-80
2021/10/01 03:48:11;;;;;;;127.68;115.72;;;10.20;99.90;;;;;;5039564;28;20561;-80
2021/10/01 03:50:37;;;;;;;123.22;111.32;;;10.20;99.90;;;;;;5057475;28;20183;-81
2021/10/01 03:53:04;;;;;;;132.23;120.03;;;10.20;99.90;;;;;;5039812;28;20172;-80
2021/10/01 03:55:33;;;;;;;125.22;112.93;;;10.30;99.90;;;;;;5057708;28;20430;-81
2021/10/01 03:57:59;;;;;;;141.70;128.68;;;10.20;99.90;;;;;;5057653;28;20287;-80
2021/10/01 04:00:28;;;;;;;121.60;109.67;;;10.30;99.90;;;;;;5057285;28;20199;-81
2021/10/01 04:03:03;;;;;;;142.40;129.57;;;10.30;99.90;;;;;;5057121;28;20957;-80
2021/10/01 04:05:29;;;;;;;130.75;117.78;;;10.30;99.90;;;;;;5057110;28;20167;-80
2021/10/01 04:07:54;;;;;;;127.37;115.47;;;10.30;99.90;;;;;;5038568;28;20276;-81
2021/10/01 04:10:20;;;;;;;149.50;135.80;;;10.30;99.90;;;;;;5220826;22;20447;-83
2021/10/01 04:12:46;;;;;;;137.30;124.67;;;10.30;99.90;;;;;;5056974;28;20149;-83
2021/10/01 04:15:11;;;;;;;134.47;122.17;;;10.20;99.90;;;;;;5057326;28;20175;-83
2021/10/01 04:17:37;;;;;;;155.73;141.83;;;10.20;99.90;;;;;;5057132;28;20184;-83
2021/10/01 04:20:04;;;;;;;148.37;135.17;;;10.10;99.90;;;;;;5056877;28;20164;-83
2021/10/01 04:22:30;;;;;;;148.95;135.10;;;10.10;99.90;;;;;;5056903;28;20196;-84
2021/10/01 04:24:56;;;;;;;123.27;111.37;;;10.20;99.90;;;;;;5056992;28;20565;-83
2021/10/01 04:27:22;;;;;;;136.90;124.47;;;10.20;99.90;;;;;;5056661;28;20177;-83
2021/10/01 04:29:47;;;;;;;158.23;144.10;;;10.20;99.90;;;;;;5056580;28;20188;-83
2021/10/01 04:32:13;;;;;;;145.57;132.87;;;10.10;99.90;;;;;;5056367;28;20164;-83
2021/10/01 04:37:17;;;;;;;116.65;105.22;;;10.20;99.90;;;;;;5056379;28;20176;-83
2021/10/01 04:39:42;;;;;;;122.77;111.17;;;10.20;99.90;;;;;;5056324;28;20165;-83
2021/10/01 04:42:08;;;;;;;130.13;118.03;;;10.10;99.90;;;;;;5055978;28;20184;-83
2021/10/01 04:44:34;;;;;;;138.50;125.70;;;10.10;99.90;;;;;;5056269;28;20248;-83
2021/10/01 04:46:59;;;;;;;140.67;127.97;;;10.10;99.90;;;;;;5056269;28;20188;-83
2021/10/01 04:49:27;;;;;;;169.93;155.80;;;10.10;99.90;;;;;;5056288;28;20219;-83
2021/10/01 04:51:53;;;;;;;121.15;109.00;;;10.10;99.90;;;;;;5055426;28;20252;-83
2021/10/01 04:54:19;;;;;;;139.53;127.10;;;10.20;99.90;;;;;;5037260;28;20600;-83
2021/10/01 04:56:47;;;;;;;99.77;87.47;;;10.10;99.90;;;;;;5055273;28;20265;-83
2021/10/01 04:59:13;;;;;;;128.18;116.25;;;10.10;99.90;;;;;;5055952;28;20218;-82
2021/10/01 05:01:39;;;;;;;147.27;134.47;;;10.00;99.90;;;;;;5055521;28;20174;-83
2021/10/01 05:04:04;;;;;;;129.40;116.93;;;10.00;99.90;;;;;;5054984;28;20395;-83
2021/10/01 05:06:30;;;;;;;125.73;113.83;;;10.10;99.90;;;;;;5055664;28;20248;-83
2021/10/01 05:08:56;;;;;;;149.80;137.00;;;10.10;99.90;;;;;;5055219;28;20168;-83
2021/10/01 05:11:21;;;;;;;153.57;139.93;;;10.10;99.90;;;;;;5055339;28;20227;-83
2021/10/01 05:13:47;;;;;;;146.50;133.17;;;10.00;99.90;;;;;;5054846;28;20165;-82
2021/10/01 05:16:13;;;;;;;132.40;120.33;;;10.00;99.90;;;;;;5059219;28;20164;-83
2021/10/01 05:18:38;;;;;;;126.13;114.23;;;10.10;99.90;;;;;;5059567;28;20186;-83
2021/10/01 05:21:04;;;;;;;126.13;113.83;;;10.10;99.90;;;;;;5059675;28;20171;-83
2021/10/01 05:23:31;;;;;;;125.53;113.10;;;10.10;99.90;;;;;;5059330;28;20194;-83
2021/10/01 05:25:57;;;;;;;132.80;120.20;;;10.00;99.90;;;;;;5059210;28;20164;-82
2021/10/01 05:28:23;;;;;;;122.82;111.00;;;10.00;99.90;;;;;;5059050;28;20176;-83
2021/10/01 05:30:48;;;;;;;124.07;111.90;;;10.00;99.90;;;;;;5058954;28;20158;-83
2021/10/01 05:33:14;;;;;;;116.67;105.03;;;10.00;99.90;;;;;;5059193;28;20172;-83
2021/10/01 05:35:41;;;;;;;131.30;119.10;;;9.90;99.90;;;;;;5059577;28;20165;-81
2021/10/01 05:38:07;;;;;;;111.82;100.50;;;9.90;99.90;;;;;;5059284;28;20180;-80
2021/10/01 05:40:33;;;;;;;137.33;125.07;;;9.90;99.90;;;;;;5060134;28;20171;-83
2021/10/01 05:42:59;;;;;;;135.87;123.40;;;9.90;99.90;;;;;;5059476;28;20184;-83
2021/10/01 05:45:24;;;;;;;148.67;135.93;;;9.90;99.90;;;;;;5058835;28;20162;-83
2021/10/01 05:47:50;;;;;;;131.53;119.27;;;9.90;99.90;;;;;;5058989;28;20208;-83
2021/10/01 05:50:16;;;;;;;150.50;137.13;;;9.90;99.90;;;;;;5040780;28;20165;-83
2021/10/01 05:55:08;;;;;;;156.80;143.52;;;9.90;99.90;;;;;;5058725;28;20167;-83
2021/10/01 05:57:35;;;;;;;125.40;113.68;;;9.90;99.90;;;;;;5058937;28;20199;-81
2021/10/01 06:00:03;;;;;;;131.57;119.07;;;9.90;99.90;;;;;;5059564;28;20149;-80
2021/10/01 06:02:29;;;;;;;139.82;127.30;;;10.00;99.90;;;;;;5059058;28;20810;-81
2021/10/01 06:04:55;;;;;;;114.23;102.80;;;10.00;99.90;;;;;;5059040;28;20206;-80
2021/10/01 06:07:21;;;;;;;139.02;125.78;;;10.00;99.90;;;;;;5059550;28;20336;-81
2021/10/01 06:09:48;;;;;;;136.05;123.57;;;10.00;99.90;;;;;;5058925;28;20225;-81
2021/10/01 06:12:15;;;;;;;121.97;110.35;;;10.00;99.90;;;;;;5058439;28;20567;-80
2021/10/01 06:14:41;;;;;;;136.15;123.88;;;10.00;99.90;;;;;;5058470;28;20247;-80
2021/10/01 06:17:08;;;;;;;134.70;122.35;;;10.00;99.90;;;;;;5060160;28;20188;-80
2021/10/01 06:19:36;;;;;;;142.70;130.07;;;10.00;99.90;;;;;;5041102;28;20640;-80
2021/10/01 06:22:04;;;;;;;141.15;128.30;;;9.90;99.90;;;;;;5059382;28;20279;-81
2021/10/01 06:24:30;;;;;;;143.13;130.35;;;10.00;99.90;;;;;;5060102;28;20161;-80
2021/10/01 06:26:55;;;;;;;129.60;117.10;;;10.00;99.90;;;;;;5042498;28;20195;-81
2021/10/01 06:29:22;;;;;;;119.80;108.13;;;10.00;99.90;;;;;;5061532;28;20632;-81
2021/10/01 06:31:47;;;;;;;127.68;115.22;;;10.10;99.90;;;;;;5059134;28;20172;-82
2021/10/01 06:34:13;;;;;;;131.13;118.53;;;10.10;99.90;;;;;;5042443;28;20168;-81
2021/10/01 06:36:39;;;;;;;113.03;101.63;;;10.10;99.90;;;;;;5059170;28;20277;-82
2021/10/01 06:39:06;;;;;;;118.50;106.88;;;10.10;99.90;;;;;;5061735;28;20165;-80
2021/10/01 06:41:33;;;;;;;121.00;108.88;;;10.20;99.90;;;;;;5059522;28;20164;-80
2021/10/01 06:44:02;;;;;;;130.20;117.85;;;10.20;99.90;;;;;;5059168;28;20198;-80
2021/10/01 06:49:07;;;;;;;118.57;107.00;;;10.30;99.90;;;;;;5059150;28;20165;-80
2021/10/01 06:51:49;;;;;;;114.68;103.32;;;10.30;99.90;;;;;;5059983;28;20738;-83
2021/10/01 08:19:29;;;;;;;99.90;77.40;;;12.10;99.90;;;;;;5036658;28;20244;-78
2021/10/01 08:21:57;;;;;;;97.73;78.17;;;12.10;99.90;;;;;;5018823;28;20201;-78
2021/10/01 08:24:24;;;;;;;92.97;71.88;;;12.10;99.90;;;;;;5018802;28;20171;-77
2021/10/01 08:26:51;;;;;;;103.20;91.40;;;12.20;99.90;;;;;;5018474;28;20192;-78
2021/10/01 08:29:21;;;;;;;106.93;95.82;;;12.20;99.90;;;;;;5036247;28;20169;-77
2021/10/01 08:31:49;;;;;;;98.60;78.87;;;12.30;99.90;;;;;;5017974;28;20157;-79
2021/10/01 08:34:16;;;;;;;104.07;92.93;;;12.30;99.90;;;;;;5018236;28;20412;-78
2021/10/01 08:36:42;;;;;;;105.70;94.63;;;12.40;99.90;;;;;;5035884;28;20407;-79
2021/10/01 08:39:09;;;;;;;98.53;87.50;;;12.60;99.90;;;;;;5035777;28;20436;-78
2021/10/01 08:41:37;;;;;;;95.87;74.63;;;12.60;99.90;;;;;;5035499;28;20451;-78
2021/10/01 08:44:05;;;;;;;104.30;93.43;;;12.80;99.90;;;;;;5035991;28;21020;-79
2021/10/01 08:46:31;;;;;;;111.07;99.57;;;12.90;99.90;;;;;;5018061;28;20431;-77
2021/10/01 08:49:01;;;;;;;128.67;116.87;;;13.10;99.90;;;;;;5017652;28;20783;-77
2021/10/01 08:51:26;;;;;;;139.23;127.00;;;13.20;99.90;;;;;;5019352;28;20490;-79
2021/10/01 08:53:54;;;;;;;132.33;120.53;;;13.30;99.90;;;;;;5017815;28;20412;-79
2021/10/01 08:56:20;;;;;;;136.93;124.77;;;13.40;99.90;;;;;;5035510;28;20403;-78
2021/10/01 08:58:46;;;;;;;153.50;140.50;;;13.50;99.90;;;;;;5017529;28;20451;-78
2021/10/01 09:01:12;;;;;;;131.80;119.83;;;13.60;99.90;;;;;;5017694;28;20412;-79
2021/10/01 09:03:42;;;;;;;126.50;114.97;;;13.70;99.90;;;;;;5036139;28;20455;-78
2021/10/01 09:06:09;;;;;;;122.80;111.23;;;13.80;99.90;;;;;;5035356;28;20165;-77
2021/10/01 09:08:57;;;;;;;108.60;97.40;;;13.90;99.90;;;;;;5018089;28;20515;-78
2021/10/01 09:11:33;;;;;;;117.83;106.37;;;14.00;99.90;;;;;;5035531;28;20899;-78
2021/10/01 09:14:07;;;;;;;106.60;95.47;;;14.10;99.90;;;;;;5017626;28;20447;-77
2021/10/01 09:16:35;;;;;;;95.70;78.33;;;14.10;98.30;;;;;;5017467;28;20465;-79
2021/10/01 09:19:05;;;;;;;88.43;57.53;;;14.20;97.40;;;;;;5034962;28;20407;-79
2021/10/01 09:21:43;;;;;;;80.33;43.47;;;14.20;98.30;;;;;;5017909;28;20400;-79
2021/10/01 09:24:11;;;;;;;78.70;38.67;;;14.40;97.40;;;;;;5017795;28;20412;-78
2021/10/01 09:26:48;;;;;;;78.70;36.40;;;14.40;97.00;;;;;;5017956;28;20408;-78
2021/10/01 09:29:23;;;;;;;77.80;38.13;;;14.50;96.40;;;;;;5035368;28;20403;-78
2021/10/01 09:31:49;;;;;;;78.10;38.57;;;14.60;94.40;;;;;;5017497;28;20407;-79
2021/10/01 09:34:37;;;;;;;76.90;35.60;;;14.60;95.30;;;;;;5034745;28;20767;-79
2021/10/01 09:37:03;;;;;;;77.63;39.87;;;14.70;92.50;;;;;;5017230;28;21012;-78
2021/10/01 09:39:35;;;;;;;73.10;27.40;;;14.70;93.10;;;;;;5035140;28;20400;-78
2021/10/01 09:42:16;;;;;;;73.20;23.07;;;14.80;91.80;;;;;;5035097;28;20142;-77
2021/10/01 09:44:57;;;;;;;79.67;37.77;;;14.90;91.50;;;;;;5035199;28;20388;-77
2021/10/01 09:47:27;;;;;;;74.30;27.17;;;15.00;92.50;;;;;;5035358;28;20850;-79
2021/10/01 09:50:02;;;;;;;73.97;21.33;;;15.10;90.80;;;;;;5017845;28;20416;-79
2021/10/01 09:52:45;;;;;;;70.50;18.60;;;15.30;90.60;;;;;;5035193;28;20542;-78
2021/10/01 09:55:16;;;;;;;77.23;33.03;;;15.40;90.70;;;;;;5035077;28;20381;-78
2021/10/01 09:58:25;;;;;;;77.03;33.80;;;15.50;84.00;;;;;;5034929;28;20948;-79
2021/10/01 10:00:53;;;;;;;70.80;18.47;;;15.50;85.50;;;;;;5036618;28;20423;-78
2021/10/01 10:03:22;;;;;;;86.77;53.30;;;15.70;90.60;;;;;;5038498;28;20465;-78
2021/10/01 10:06:01;;;;;;;86.17;60.63;;;15.80;86.40;;;;;;5038958;28;20409;-78
2021/10/01 10:08:37;;;;;;;91.50;78.40;;;15.90;77.60;;;;;;5038436;28;20479;-78
2021/10/01 10:11:05;;;;;;;85.37;37.03;;;15.90;78.40;;;;;;5038741;28;20378;-77
2021/10/01 10:13:51;;;;;;;75.73;32.97;;;15.90;73.10;;;;;;5038111;28;20406;-78
2021/10/01 10:16:24;;;;;;;74.00;23.60;;;16.00;75.30;;;;;;5038302;28;20395;-78
2021/10/01 10:18:56;;;;;;;75.57;23.50;;;15.90;72.80;;;;;;5038772;28;20498;-79
2021/10/01 10:21:22;;;;;;;71.47;22.97;;;16.10;79.10;;;;;;5038094;28;20385;-78
2021/10/01 10:23:48;;;;;;;76.37;31.50;;;16.10;72.30;;;;;;5019997;28;20506;-78
2021/10/01 10:26:14;;;;;;;75.30;31.37;;;16.10;70.90;;;;;;5038345;28;20990;-77
2021/10/01 10:28:41;;;;;;;77.37;31.37;;;16.20;73.00;;;;;;5037727;28;20271;-79
2021/10/01 10:31:09;;;;;;;74.47;30.77;;;16.30;72.60;;;;;;5038101;28;20421;-78
2021/10/01 10:33:44;;;;;;;78.80;42.70;;;16.40;70.20;;;;;;5020123;28;20414;-78
2021/10/01 10:36:47;;;;;;;79.47;45.17;;;16.30;64.90;;;;;;5037925;28;20965;-78
2021/10/01 10:39:15;;;;;;;79.63;44.13;;;16.50;68.00;;;;;;4997119;28;20415;-79
2021/10/01 10:42:03;;;;;;;83.40;48.60;;;16.50;66.30;;;;;;5037666;28;20414;-78
2021/10/01 10:44:55;;;;;;;77.40;39.97;;;16.70;66.10;;;;;;5037835;28;20435;-78
2021/10/01 10:47:44;;;;;;;86.17;52.27;;;16.60;64.50;;;;;;5037645;28;20444;-78
2021/10/01 10:50:25;;;;;;;79.67;44.90;;;16.50;64.60;;;;;;5037844;28;20410;-80
2021/10/01 10:53:10;;;;;;;80.77;45.53;;;16.50;69.60;;;;;;5037974;28;20937;-78
2021/10/01 10:55:46;;;;;;;83.40;54.90;;;16.80;68.20;;;;;;5038097;28;20379;-79
2021/10/01 10:58:25;;;;;;;82.50;44.50;;;17.00;65.20;;;;;;5038776;28;21034;-79
2021/10/01 11:01:23;;;;;;;84.40;50.07;;;17.00;63.40;;;;;;5038451;28;20404;-79
2021/10/01 11:03:54;;;;;;;83.60;53.37;;;17.10;60.90;;;;;;5021862;28;20463;-79
2021/10/01 11:06:20;;;;;;;85.70;61.90;;;17.20;66.40;;;;;;5037474;28;20439;-78
2021/10/01 11:08:49;;;;;;;90.13;74.70;;;17.40;62.20;;;;;;5037192;28;20427;-78
2021/10/01 11:11:32;;;;;;;94.23;80.00;;;17.30;61.20;;;;;;5036518;28;20408;-79
2021/10/01 11:14:22;;;;;;;82.17;54.37;;;17.20;62.90;;;;;;5036826;28;20744;-78
2021/10/01 11:16:53;;;;;;;85.63;62.63;;;16.90;64.10;;;;;;5027546;28;20432;-78
2021/10/01 11:19:40;;;;;;;86.97;59.67;;;17.00;69.70;;;;;;5019933;28;20412;-79
2021/10/01 11:22:24;;;;;;;177.67;163.80;;;17.40;69.20;;;;;;5037198;28;20380;-78
2021/10/01 11:24:55;;;;;;;126.23;114.57;;;17.30;57.80;;;;;;5037311;28;20511;-79
2021/10/01 11:27:20;;;;;;;198.67;183.93;;;17.50;59.20;;;;;;5037040;28;20516;-77
2021/10/01 11:29:46;;;;;;;158.17;144.93;;;17.50;57.90;;;;;;5019322;28;20843;-78
2021/10/01 11:32:26;;;;;;;215.40;200.23;;;17.60;59.00;;;;;;5037166;28;20659;-78
2021/10/01 11:35:00;;;;;;;87.37;64.23;;;17.70;58.80;;;;;;5036755;28;20208;-78
2021/10/01 11:37:31;;;;;;;235.67;219.73;;;17.90;59.40;;;;;;5036461;28;20428;-78
2021/10/01 11:40:00;;;;;;;255.50;238.97;;;18.10;51.20;;;;;;5018366;28;20507;-78
2021/10/01 11:42:43;;;;;;;230.43;214.80;;;18.30;52.50;;;;;;5036347;28;20451;-78
2021/10/01 11:45:16;;;;;;;182.53;167.77;;;18.60;58.80;;;;;;5018633;28;20466;-78
2021/10/01 11:47:57;;;;;;;127.17;114.50;;;18.70;46.40;;;;;;5036329;28;20430;-78
2021/10/01 11:50:35;;;;;;;123.80;112.00;;;19.00;43.00;;;;;;5018721;28;20826;-77
2021/10/01 11:53:24;;;;;;;111.23;100.17;;;19.00;43.40;;;;;;5036605;28;20876;-77
2021/10/01 11:55:55;;;;;;;138.20;126.20;;;18.90;39.20;;;;;;5036941;28;20482;-78
2021/10/01 11:58:26;;;;;;;134.97;123.20;;;19.00;35.80;;;;;;5036300;28;20455;-78
2021/10/01 12:00:53;;;;;;;119.30;107.90;;;18.80;38.30;;;;;;5036394;28;20407;-78
2021/10/01 12:03:20;;;;;;;134.00;122.40;;;18.80;39.30;;;;;;5036380;28;20478;-77
2021/10/01 12:05:55;;;;;;;143.90;131.57;;;18.70;35.30;;;;;;5036932;28;20589;-78
2021/10/01 12:08:23;;;;;;;125.17;113.77;;;18.70;38.00;;;;;;5018711;28;20458;-79
2021/10/01 12:10:54;;;;;;;140.53;128.53;;;18.80;38.10;;;;;;5018326;28;20420;-78
2021/10/01 12:13:23;;;;;;;149.13;136.57;;;19.00;37.70;;;;;;5036542;28;20416;-78
2021/10/01 12:15:56;;;;;;;150.63;137.83;;;19.00;37.70;;;;;;5035973;28;20408;-79
2021/10/01 12:18:40;;;;;;;137.33;125.40;;;19.30;39.70;;;;;;5036144;28;20428;-78
2021/10/01 12:21:08;;;;;;;134.87;122.77;;;19.40;35.80;;;;;;5036722;28;20385;-79
2021/10/01 12:23:40;;;;;;;252.03;235.20;;;19.70;29.60;;;;;;5035896;28;20445;-78
2021/10/01 12:26:15;;;;;;;256.73;240.23;;;19.70;17.80;;;;;;5018729;28;20484;-79
2021/10/01 12:28:40;;;;;;;117.73;106.03;;;19.80;22.40;;;;;;5035691;28;20445;-79
2021/10/01 12:31:09;;;;;;;100.67;90.07;;;19.90;12.80;;;;;;5036503;28;20401;-78
2021/10/01 12:33:34;;;;;;;104.53;93.67;;;19.80;11.40;;;;;;5036075;28;20174;-79
2021/10/01 12:36:00;;;;;;;158.27;145.57;;;19.70;9.70;;;;;;5035916;28;21029;-79
2021/10/01 12:38:27;;;;;;;134.77;122.87;;;19.60;5.60;;;;;;5018342;28;20193;-78
2021/10/01 12:41:15;;;;;;;232.13;216.17;;;19.70;1.00;;;;;;5036289;28;20407;-78
2021/10/01 12:43:54;;;;;;;165.10;151.80;;;19.50;1.00;;;;;;5035848;28;20801;-78
2021/10/01 12:46:44;;;;;;;254.60;238.30;;;19.30;1.00;;;;;;5036174;28;20385;-79
2021/10/01 12:49:21;;;;;;;194.13;179.77;;;19.40;1.00;;;;;;5035710;28;20388;-78
2021/10/01 12:52:10;;;;;;;197.43;182.90;;;19.50;1.00;;;;;;5035919;28;20514;-79
2021/10/01 12:54:42;;;;;;;238.43;222.77;;;19.50;1.00;;;;;;5035583;28;20515;-78
2021/10/01 12:59:44;;;;;;;188.97;174.80;;;19.50;1.00;;;;;;5072754;23;20493;-82
2021/10/01 13:02:31;;;;;;;115.00;103.83;;;19.60;1.00;;;;;;5056475;28;20835;-82
2021/10/01 13:05:04;;;;;;;162.33;149.07;;;19.80;1.00;;;;;;5038321;28;20549;-82
2021/10/01 13:08:20;;;;;;;230.03;214.77;;;19.80;1.00;;;;;;5056270;28;20415;-82
2021/10/01 13:11:06;;;;;;;240.00;224.17;;;19.70;1.00;;;;;;5038651;28;20903;-82
2021/10/01 13:13:44;;;;;;;176.47;162.60;;;19.60;1.00;;;;;;5037692;28;20557;-82
2021/10/01 13:16:26;;;;;;;215.67;200.70;;;19.30;1.00;;;;;;5038795;28;20416;-82
2021/10/01 13:19:12;;;;;;;193.77;179.30;;;19.40;1.00;;;;;;5056038;28;20381;-82
2021/10/01 13:22:05;;;;;;;221.67;206.27;;;19.50;1.00;;;;;;5055885;28;20384;-82
2021/10/01 13:24:37;;;;;;;189.43;175.63;;;19.50;1.00;;;;;;5056385;28;20384;-82
2021/10/01 13:27:11;;;;;;;151.63;139.07;;;19.70;1.00;;;;;;5038248;28;20963;-82
2021/10/01 13:30:01;;;;;;;195.97;181.80;;;19.50;1.00;;;;;;5037179;28;20402;-82
2021/10/01 13:32:27;;;;;;;146.87;134.57;;;19.50;1.00;;;;;;5028770;28;20534;-82
2021/10/01 13:35:24;;;;;;;124.53;113.23;;;19.60;1.00;;;;;;5055869;28;20395;-82
2021/10/01 13:37:51;;;;;;;188.50;174.47;;;19.70;1.00;;;;;;5040955;28;20270;-82
2021/10/01 13:40:22;;;;;;;247.50;231.50;;;19.60;1.00;;;;;;5061475;28;20423;-82
2021/10/01 13:42:58;;;;;;;233.70;218.40;;;19.70;1.00;;;;;;5042347;28;20471;-82
2021/10/01 13:45:26;;;;;;;172.97;159.70;;;19.60;1.00;;;;;;5058696;28;20372;-82
2021/10/01 13:48:02;;;;;;;209.47;194.87;;;19.60;1.00;;;;;;5059107;28;20424;-82
2021/10/01 13:50:28;;;;;;;218.73;204.10;;;19.30;1.00;;;;;;5041272;28;20423;-82
2021/10/01 13:52:53;;;;;;;202.63;188.57;;;19.20;1.00;;;;;;5058892;28;20403;-82
2021/10/01 13:55:36;;;;;;;219.47;204.37;;;19.10;1.00;;;;;;5059099;28;20695;-82
2021/10/01 13:58:23;;;;;;;150.73;138.40;;;19.10;1.00;;;;;;5040652;28;20195;-82
2021/10/01 14:01:16;;;;;;;197.30;183.27;;;19.00;1.00;;;;;;5042679;28;20454;-82
2021/10/01 14:03:47;;;;;;;215.03;200.70;;;19.00;1.00;;;;;;5040510;28;20451;-82
2021/10/01 14:06:16;;;;;;;156.13;143.13;;;19.00;1.00;;;;;;5058962;28;20384;-82
2021/10/01 14:08:48;;;;;;;221.33;206.70;;;18.90;1.00;;;;;;5040733;28;20427;-82
2021/10/01 14:11:16;;;;;;;227.00;211.53;;;18.90;1.00;;;;;;5041089;28;20520;-82
2021/10/01 14:13:42;;;;;;;231.37;216.50;;;19.00;1.00;;;;;;5059124;28;20400;-82